sensor_id;sensor_type;location;lat;lon;timestamp;temperature;humidity
6496;DHT22;3281;47.658;9.166;2023-02-13T00:00:37;1.60;1.00
6496;DHT22;3281;47.658;9.166;2023-02-13T00:03:04;1.50;1.00
6496;DHT22;3281;47.658;9.166;2023-02-13T00:05:31;1.40;1.00
6496;DHT22;3281;47.658;9.166;2023-02-13T00:07:58;1.40;1.00
6496;DHT22;3281;47.658;9.166;2023-02-13T00:10:24;1.40;1.00
6496;DHT22;3281;47.658;9.166;2023-02-13T00:12:52;1.60;1.00
6496;DHT22;3281;47.658;9.166;2023-02-13T00:15:19;1.50;1.00
6496;DHT22;3281;47.658;9.166;2023-02-13T00:17:46;1.40;1.00
6496;DHT22;3281;47.658;9.166;2023-02-13T00:20:13;1.50;1.00
6496;DHT22;3281;47.658;9.166;2023-02-13T00:22:39;1.50;1.00
6496;DHT22;3281;47.658;9.166;2023-02-13T00:25:07;1.60;1.00
6496;DHT22;3281;47.658;9.166;2023-02-13T00:27:34;1.70;1.00
6496;DHT22;3281;47.658;9.166;2023-02-13T00:30:02;1.80;1.00
6496;DHT22;3281;47.658;9.166;2023-02-13T00:32:29;1.90;1.00
6496;DHT22;3281;47.658;9.166;2023-02-13T00:34:56;2.00;1.00
6496;DHT22;3281;47.658;9.166;2023-02-13T00:37:23;2.00;1.00
6496;DHT22;3281;47.658;9.166;2023-02-13T00:39:50;2.00;1.00
6496;DHT22;3281;47.658;9.166;2023-02-13T00:42:17;1.90;1.00
6496;DHT22;3281;47.658;9.166;2023-02-13T00:44:44;1.90;1.00
6496;DHT22;3281;47.658;9.166;2023-02-13T00:47:12;1.90;1.00
6496;DHT22;3281;47.658;9.166;2023-02-13T00:49:39;1.90;1.00
6496;DHT22;3281;47.658;9.166;2023-02-13T00:52:06;2.00;1.00
6496;DHT22;3281;47.658;9.166;2023-02-13T00:54:33;2.10;1.00
6496;DHT22;3281;47.658;9.166;2023-02-13T00:56:59;2.30;1.00
6496;DHT22;3281;47.658;9.166;2023-02-13T00:59:26;2.30;1.00
6496;DHT22;3281;47.658;9.166;2023-02-13T01:01:53;2.30;1.00
6496;DHT22;3281;47.658;9.166;2023-02-13T01:04:21;2.30;1.00
6496;DHT22;3281;47.658;9.166;2023-02-13T01:06:48;2.30;1.00
6496;DHT22;3281;47.658;9.166;2023-02-13T01:09:14;2.30;1.00
6496;DHT22;3281;47.658;9.166;2023-02-13T01:11:41;2.30;1.00
6496;DHT22;3281;47.658;9.166;2023-02-13T01:14:08;2.40;1.00
6496;DHT22;3281;47.658;9.166;2023-02-13T01:16:35;2.60;1.00
6496;DHT22;3281;47.658;9.166;2023-02-13T01:19:01;2.60;1.00
6496;DHT22;3281;47.658;9.166;2023-02-13T01:21:31;2.60;1.00
6496;DHT22;3281;47.658;9.166;2023-02-13T01:23:57;2.60;1.00
6496;DHT22;3281;47.658;9.166;2023-02-13T01:26:28;2.60;1.00
6496;DHT22;3281;47.658;9.166;2023-02-13T01:28:54;2.60;1.00
6496;DHT22;3281;47.658;9.166;2023-02-13T01:31:22;2.60;1.00
6496;DHT22;3281;47.658;9.166;2023-02-13T01:33:49;2.80;1.00
6496;DHT22;3281;47.658;9.166;2023-02-13T01:36:15;2.90;1.00
6496;DHT22;3281;47.658;9.166;2023-02-13T01:38:44;2.90;1.00
6496;DHT22;3281;47.658;9.166;2023-02-13T01:41:10;2.90;1.00
6496;DHT22;3281;47.658;9.166;2023-02-13T01:43:47;2.90;1.00
6496;DHT22;3281;47.658;9.166;2023-02-13T01:46:18;2.90;1.00
6496;DHT22;3281;47.658;9.166;2023-02-13T01:48:47;3.00;1.00
6496;DHT22;3281;47.658;9.166;2023-02-13T01:51:17;3.00;1.00
6496;DHT22;3281;47.658;9.166;2023-02-13T01:53:50;3.00;1.00
6496;DHT22;3281;47.658;9.166;2023-02-13T01:56:22;3.10;1.00
6496;DHT22;3281;47.658;9.166;2023-02-13T01:58:55;3.10;1.00
6496;DHT22;3281;47.658;9.166;2023-02-13T02:01:23;3.10;1.00
6496;DHT22;3281;47.658;9.166;2023-02-13T02:03:55;3.10;1.00
6496;DHT22;3281;47.658;9.166;2023-02-13T02:06:26;3.20;1.00
6496;DHT22;3281;47.658;9.166;2023-02-13T02:08:58;3.30;1.00
6496;DHT22;3281;47.658;9.166;2023-02-13T02:11:33;3.30;1.00
6496;DHT22;3281;47.658;9.166;2023-02-13T02:14:01;3.30;1.00
6496;DHT22;3281;47.658;9.166;2023-02-13T02:16:28;3.40;1.00
6496;DHT22;3281;47.658;9.166;2023-02-13T02:18:56;3.40;1.00
6496;DHT22;3281;47.658;9.166;2023-02-13T02:21:52;3.40;1.00
6496;DHT22;3281;47.658;9.166;2023-02-13T02:25:11;3.40;1.00
6496;DHT22;3281;47.658;9.166;2023-02-13T02:28:00;3.40;1.00
6496;DHT22;3281;47.658;9.166;2023-02-13T02:30:52;3.50;1.00
6496;DHT22;3281;47.658;9.166;2023-02-13T02:33:31;3.60;1.00
6496;DHT22;3281;47.658;9.166;2023-02-13T02:36:16;3.60;1.00
6496;DHT22;3281;47.658;9.166;2023-02-13T02:38:57;3.60;1.00
6496;DHT22;3281;47.658;9.166;2023-02-13T02:41:33;3.50;1.00
6496;DHT22;3281;47.658;9.166;2023-02-13T02:44:14;3.70;1.00
6496;DHT22;3281;47.658;9.166;2023-02-13T02:46:56;3.70;1.00
6496;DHT22;3281;47.658;9.166;2023-02-13T02:49:50;3.70;1.00
6496;DHT22;3281;47.658;9.166;2023-02-13T02:52:29;3.70;1.00
6496;DHT22;3281;47.658;9.166;2023-02-13T02:55:01;3.60;1.00
6496;DHT22;3281;47.658;9.166;2023-02-13T02:57:36;3.50;1.00
6496;DHT22;3281;47.658;9.166;2023-02-13T03:00:23;3.60;1.00
6496;DHT22;3281;47.658;9.166;2023-02-13T03:03:14;3.50;1.00
6496;DHT22;3281;47.658;9.166;2023-02-13T03:06:03;3.70;1.00
6496;DHT22;3281;47.658;9.166;2023-02-13T03:08:39;3.60;1.00
6496;DHT22;3281;47.658;9.166;2023-02-13T03:11:25;3.60;1.00
6496;DHT22;3281;47.658;9.166;2023-02-13T03:14:26;3.80;1.00
6496;DHT22;3281;47.658;9.166;2023-02-13T03:16:54;3.90;1.00
6496;DHT22;3281;47.658;9.166;2023-02-13T03:19:51;3.90;1.00
6496;DHT22;3281;47.658;9.166;2023-02-13T03:22:45;4.00;1.00
6496;DHT22;3281;47.658;9.166;2023-02-13T03:25:19;4.00;1.00
6496;DHT22;3281;47.658;9.166;2023-02-13T03:27:57;4.00;1.00
6496;DHT22;3281;47.658;9.166;2023-02-13T03:30:51;4.00;1.00
6496;DHT22;3281;47.658;9.166;2023-02-13T03:36:18;4.10;1.00
6496;DHT22;3281;47.658;9.166;2023-02-13T03:39:10;4.00;1.00
6496;DHT22;3281;47.658;9.166;2023-02-13T03:41:39;4.00;1.00
6496;DHT22;3281;47.658;9.166;2023-02-13T03:44:12;4.00;1.00
6496;DHT22;3281;47.658;9.166;2023-02-13T03:46:43;4.20;1.00
6496;DHT22;3281;47.658;9.166;2023-02-13T03:49:16;4.20;1.00
6496;DHT22;3281;47.658;9.166;2023-02-13T03:52:07;4.10;1.00
6496;DHT22;3281;47.658;9.166;2023-02-13T03:54:40;4.00;1.00
6496;DHT22;3281;47.658;9.166;2023-02-13T03:57:28;4.00;1.00
6496;DHT22;3281;47.658;9.166;2023-02-13T04:00:16;3.90;1.00
6496;DHT22;3281;47.658;9.166;2023-02-13T04:02:51;4.00;1.00
6496;DHT22;3281;47.658;9.166;2023-02-13T04:05:21;4.00;1.00
6496;DHT22;3281;47.658;9.166;2023-02-13T04:07:49;3.90;1.00
6496;DHT22;3281;47.658;9.166;2023-02-13T04:10:19;3.90;1.00
6496;DHT22;3281;47.658;9.166;2023-02-13T04:12:54;3.90;1.00
6496;DHT22;3281;47.658;9.166;2023-02-13T04:15:26;4.00;1.00
6496;DHT22;3281;47.658;9.166;2023-02-13T04:17:58;4.00;1.00
6496;DHT22;3281;47.658;9.166;2023-02-13T04:20:30;3.90;1.00
6496;DHT22;3281;47.658;9.166;2023-02-13T04:23:03;3.90;1.00
6496;DHT22;3281;47.658;9.166;2023-02-13T04:25:32;4.00;1.00
6496;DHT22;3281;47.658;9.166;2023-02-13T04:27:59;4.00;1.00
6496;DHT22;3281;47.658;9.166;2023-02-13T04:30:25;3.90;1.00
6496;DHT22;3281;47.658;9.166;2023-02-13T04:32:52;4.00;1.00
6496;DHT22;3281;47.658;9.166;2023-02-13T04:35:19;3.90;1.00
6496;DHT22;3281;47.658;9.166;2023-02-13T04:37:46;4.00;1.00
6496;DHT22;3281;47.658;9.166;2023-02-13T04:40:13;4.00;1.00
6496;DHT22;3281;47.658;9.166;2023-02-13T04:42:41;4.00;1.00
6496;DHT22;3281;47.658;9.166;2023-02-13T04:45:08;4.00;1.00
6496;DHT22;3281;47.658;9.166;2023-02-13T04:47:35;4.00;1.00
6496;DHT22;3281;47.658;9.166;2023-02-13T04:50:02;4.10;1.00
6496;DHT22;3281;47.658;9.166;2023-02-13T04:52:29;4.10;1.00
6496;DHT22;3281;47.658;9.166;2023-02-13T04:54:56;4.20;1.00
6496;DHT22;3281;47.658;9.166;2023-02-13T04:57:22;4.20;1.00
6496;DHT22;3281;47.658;9.166;2023-02-13T04:59:50;4.30;1.00
6496;DHT22;3281;47.658;9.166;2023-02-13T05:02:17;4.30;1.00
6496;DHT22;3281;47.658;9.166;2023-02-13T05:04:44;4.10;1.00
6496;DHT22;3281;47.658;9.166;2023-02-13T05:07:10;4.00;1.00
6496;DHT22;3281;47.658;9.166;2023-02-13T05:09:37;4.10;1.00
6496;DHT22;3281;47.658;9.166;2023-02-13T05:12:04;4.10;1.00
6496;DHT22;3281;47.658;9.166;2023-02-13T05:14:31;4.40;1.00
6496;DHT22;3281;47.658;9.166;2023-02-13T05:16:59;4.80;1.00
6496;DHT22;3281;47.658;9.166;2023-02-13T05:19:26;4.90;1.00
6496;DHT22;3281;47.658;9.166;2023-02-13T05:21:52;5.00;1.00
6496;DHT22;3281;47.658;9.166;2023-02-13T05:24:37;5.00;1.00
6496;DHT22;3281;47.658;9.166;2023-02-13T05:27:03;4.90;1.00
6496;DHT22;3281;47.658;9.166;2023-02-13T05:29:30;4.80;1.00
6496;DHT22;3281;47.658;9.166;2023-02-13T05:31:57;4.80;1.00
6496;DHT22;3281;47.658;9.166;2023-02-13T05:34:26;4.90;1.00
6496;DHT22;3281;47.658;9.166;2023-02-13T05:36:53;4.90;1.00
6496;DHT22;3281;47.658;9.166;2023-02-13T05:39:20;5.00;1.00
6496;DHT22;3281;47.658;9.166;2023-02-13T05:41:48;4.90;1.00
6496;DHT22;3281;47.658;9.166;2023-02-13T05:44:15;4.70;1.00
6496;DHT22;3281;47.658;9.166;2023-02-13T05:46:43;4.60;1.00
6496;DHT22;3281;47.658;9.166;2023-02-13T05:49:11;4.60;1.00
6496;DHT22;3281;47.658;9.166;2023-02-13T05:51:40;4.60;1.00
6496;DHT22;3281;47.658;9.166;2023-02-13T05:54:07;4.60;1.00
6496;DHT22;3281;47.658;9.166;2023-02-13T05:56:34;4.60;1.00
6496;DHT22;3281;47.658;9.166;2023-02-13T05:59:01;4.60;1.00
6496;DHT22;3281;47.658;9.166;2023-02-13T06:01:27;4.60;1.00
6496;DHT22;3281;47.658;9.166;2023-02-13T06:03:54;4.60;1.00
6496;DHT22;3281;47.658;9.166;2023-02-13T06:06:21;4.60;1.00
6496;DHT22;3281;47.658;9.166;2023-02-13T06:08:49;4.70;1.00
6496;DHT22;3281;47.658;9.166;2023-02-13T06:11:15;4.60;1.00
6496;DHT22;3281;47.658;9.166;2023-02-13T06:13:42;4.70;1.00
6496;DHT22;3281;47.658;9.166;2023-02-13T06:16:10;4.70;1.00
6496;DHT22;3281;47.658;9.166;2023-02-13T06:18:37;4.70;1.00
6496;DHT22;3281;47.658;9.166;2023-02-13T06:21:05;4.60;1.00
6496;DHT22;3281;47.658;9.166;2023-02-13T06:23:32;4.60;1.00
6496;DHT22;3281;47.658;9.166;2023-02-13T06:26:02;4.60;1.00
6496;DHT22;3281;47.658;9.166;2023-02-13T06:28:29;4.50;1.00
6496;DHT22;3281;47.658;9.166;2023-02-13T06:30:56;4.70;1.00
6496;DHT22;3281;47.658;9.166;2023-02-13T06:33:23;4.80;1.00
6496;DHT22;3281;47.658;9.166;2023-02-13T06:35:50;4.70;1.00
6496;DHT22;3281;47.658;9.166;2023-02-13T06:38:17;4.70;1.00
6496;DHT22;3281;47.658;9.166;2023-02-13T06:40:44;4.60;1.00
6496;DHT22;3281;47.658;9.166;2023-02-13T06:43:12;4.60;1.00
6496;DHT22;3281;47.658;9.166;2023-02-13T06:45:39;4.70;1.00
6496;DHT22;3281;47.658;9.166;2023-02-13T06:48:06;4.70;1.00
6496;DHT22;3281;47.658;9.166;2023-02-13T06:50:33;4.70;1.00
6496;DHT22;3281;47.658;9.166;2023-02-13T06:53:00;4.60;1.00
6496;DHT22;3281;47.658;9.166;2023-02-13T06:55:27;4.60;1.00
6496;DHT22;3281;47.658;9.166;2023-02-13T06:57:54;4.50;1.00
6496;DHT22;3281;47.658;9.166;2023-02-13T07:00:22;4.60;1.00
6496;DHT22;3281;47.658;9.166;2023-02-13T07:02:49;4.70;1.00
6496;DHT22;3281;47.658;9.166;2023-02-13T07:05:16;4.50;1.00
6496;DHT22;3281;47.658;9.166;2023-02-13T07:07:43;4.60;1.00
6496;DHT22;3281;47.658;9.166;2023-02-13T07:10:12;4.60;1.00
6496;DHT22;3281;47.658;9.166;2023-02-13T07:12:39;4.60;1.00
6496;DHT22;3281;47.658;9.166;2023-02-13T07:15:06;4.60;1.00
6496;DHT22;3281;47.658;9.166;2023-02-13T07:17:35;4.50;1.00
6496;DHT22;3281;47.658;9.166;2023-02-13T07:20:01;4.50;1.00
6496;DHT22;3281;47.658;9.166;2023-02-13T07:22:30;4.60;1.00
6496;DHT22;3281;47.658;9.166;2023-02-13T07:24:57;4.80;1.00
6496;DHT22;3281;47.658;9.166;2023-02-13T07:27:25;4.70;1.00
6496;DHT22;3281;47.658;9.166;2023-02-13T07:29:54;4.60;1.00
6496;DHT22;3281;47.658;9.166;2023-02-13T07:32:21;4.70;1.00
6496;DHT22;3281;47.658;9.166;2023-02-13T07:34:49;4.70;1.00
6496;DHT22;3281;47.658;9.166;2023-02-13T07:37:16;4.70;1.00
6496;DHT22;3281;47.658;9.166;2023-02-13T07:39:43;4.70;1.00
6496;DHT22;3281;47.658;9.166;2023-02-13T07:42:09;4.80;1.00
6496;DHT22;3281;47.658;9.166;2023-02-13T07:44:36;4.80;1.00
6496;DHT22;3281;47.658;9.166;2023-02-13T07:47:03;4.80;1.00
6496;DHT22;3281;47.658;9.166;2023-02-13T07:49:29;4.90;1.00
6496;DHT22;3281;47.658;9.166;2023-02-13T07:51:58;5.00;1.00
6496;DHT22;3281;47.658;9.166;2023-02-13T07:54:24;5.20;1.00
6496;DHT22;3281;47.658;9.166;2023-02-13T07:56:51;5.10;1.00
6496;DHT22;3281;47.658;9.166;2023-02-13T07:59:18;5.10;1.00
6496;DHT22;3281;47.658;9.166;2023-02-13T08:01:44;5.00;1.00
6496;DHT22;3281;47.658;9.166;2023-02-13T08:04:11;5.00;1.00
6496;DHT22;3281;47.658;9.166;2023-02-13T08:06:38;4.90;1.00
6496;DHT22;3281;47.658;9.166;2023-02-13T08:09:07;5.00;1.00
6496;DHT22;3281;47.658;9.166;2023-02-13T08:11:57;5.00;1.00
6496;DHT22;3281;47.658;9.166;2023-02-13T08:14:25;5.10;1.00
6496;DHT22;3281;47.658;9.166;2023-02-13T08:16:53;5.10;1.00
6496;DHT22;3281;47.658;9.166;2023-02-13T08:19:21;5.10;1.00
6496;DHT22;3281;47.658;9.166;2023-02-13T08:21:47;5.10;1.00
6496;DHT22;3281;47.658;9.166;2023-02-13T08:24:15;5.10;1.00
6496;DHT22;3281;47.658;9.166;2023-02-13T08:26:42;5.10;1.00
6496;DHT22;3281;47.658;9.166;2023-02-13T08:29:09;5.10;1.00
6496;DHT22;3281;47.658;9.166;2023-02-13T08:31:36;5.10;1.00
6496;DHT22;3281;47.658;9.166;2023-02-13T08:34:02;5.10;1.00
6496;DHT22;3281;47.658;9.166;2023-02-13T08:36:29;5.20;1.00
6496;DHT22;3281;47.658;9.166;2023-02-13T08:38:56;5.20;1.00
6496;DHT22;3281;47.658;9.166;2023-02-13T08:41:24;5.10;1.00
6496;DHT22;3281;47.658;9.166;2023-02-13T08:43:53;5.10;1.00
6496;DHT22;3281;47.658;9.166;2023-02-13T08:46:20;5.20;1.00
6496;DHT22;3281;47.658;9.166;2023-02-13T08:48:47;5.30;1.00
6496;DHT22;3281;47.658;9.166;2023-02-13T08:51:14;5.30;1.00
6496;DHT22;3281;47.658;9.166;2023-02-13T08:53:40;5.10;1.00
6496;DHT22;3281;47.658;9.166;2023-02-13T08:56:08;5.20;1.00
6496;DHT22;3281;47.658;9.166;2023-02-13T08:58:36;5.10;1.00
6496;DHT22;3281;47.658;9.166;2023-02-13T09:01:05;5.20;1.00
6496;DHT22;3281;47.658;9.166;2023-02-13T09:03:32;5.30;1.00
6496;DHT22;3281;47.658;9.166;2023-02-13T09:05:59;5.30;1.00
6496;DHT22;3281;47.658;9.166;2023-02-13T09:08:26;5.30;1.00
6496;DHT22;3281;47.658;9.166;2023-02-13T09:10:56;5.30;1.00
6496;DHT22;3281;47.658;9.166;2023-02-13T09:13:24;5.50;1.00
6496;DHT22;3281;47.658;9.166;2023-02-13T09:15:52;5.50;1.00
6496;DHT22;3281;47.658;9.166;2023-02-13T09:18:19;5.40;1.00
6496;DHT22;3281;47.658;9.166;2023-02-13T09:20:46;5.30;1.00
6496;DHT22;3281;47.658;9.166;2023-02-13T09:23:12;5.20;1.00
6496;DHT22;3281;47.658;9.166;2023-02-13T09:25:39;5.20;1.00
6496;DHT22;3281;47.658;9.166;2023-02-13T09:28:06;5.30;1.00
6496;DHT22;3281;47.658;9.166;2023-02-13T09:30:32;5.40;1.00
6496;DHT22;3281;47.658;9.166;2023-02-13T09:33:00;5.30;1.00
6496;DHT22;3281;47.658;9.166;2023-02-13T09:35:27;5.40;1.00
6496;DHT22;3281;47.658;9.166;2023-02-13T09:37:54;5.70;1.00
6496;DHT22;3281;47.658;9.166;2023-02-13T09:40:26;5.70;1.00
6496;DHT22;3281;47.658;9.166;2023-02-13T09:43:01;5.80;1.00
6496;DHT22;3281;47.658;9.166;2023-02-13T09:45:30;5.70;1.00
6496;DHT22;3281;47.658;9.166;2023-02-13T09:47:58;5.60;1.00
6496;DHT22;3281;47.658;9.166;2023-02-13T09:50:30;5.80;1.00
6496;DHT22;3281;47.658;9.166;2023-02-13T09:52:58;5.70;1.00
6496;DHT22;3281;47.658;9.166;2023-02-13T09:55:28;5.70;1.00
6496;DHT22;3281;47.658;9.166;2023-02-13T09:58:02;5.70;1.00
6496;DHT22;3281;47.658;9.166;2023-02-13T10:00:33;5.80;1.00
6496;DHT22;3281;47.658;9.166;2023-02-13T10:03:16;5.90;1.00
6496;DHT22;3281;47.658;9.166;2023-02-13T10:05:51;5.80;1.00
6496;DHT22;3281;47.658;9.166;2023-02-13T10:11:29;6.10;1.00
6496;DHT22;3281;47.658;9.166;2023-02-13T10:14:01;6.20;1.00
6496;DHT22;3281;47.658;9.166;2023-02-13T10:16:35;6.00;1.00
6496;DHT22;3281;47.658;9.166;2023-02-13T10:19:12;6.00;1.00
6496;DHT22;3281;47.658;9.166;2023-02-13T10:21:45;6.20;1.00
6496;DHT22;3281;47.658;9.166;2023-02-13T10:24:22;6.20;1.00
6496;DHT22;3281;47.658;9.166;2023-02-13T10:26:53;6.30;1.00
6496;DHT22;3281;47.658;9.166;2023-02-13T10:29:24;6.40;1.00
6496;DHT22;3281;47.658;9.166;2023-02-13T10:32:16;6.30;1.00
6496;DHT22;3281;47.658;9.166;2023-02-13T10:34:45;6.40;1.00
6496;DHT22;3281;47.658;9.166;2023-02-13T10:37:15;6.10;1.00
6496;DHT22;3281;47.658;9.166;2023-02-13T10:39:44;6.10;1.00
6496;DHT22;3281;47.658;9.166;2023-02-13T10:42:19;6.20;1.00
6496;DHT22;3281;47.658;9.166;2023-02-13T10:44:56;6.30;1.00
6496;DHT22;3281;47.658;9.166;2023-02-13T10:47:38;6.20;1.00
6496;DHT22;3281;47.658;9.166;2023-02-13T10:50:16;6.30;1.00
6496;DHT22;3281;47.658;9.166;2023-02-13T10:52:53;6.20;1.00
6496;DHT22;3281;47.658;9.166;2023-02-13T10:55:50;6.10;1.00
6496;DHT22;3281;47.658;9.166;2023-02-13T10:58:21;6.10;1.00
6496;DHT22;3281;47.658;9.166;2023-02-13T11:00:54;6.10;1.00
6496;DHT22;3281;47.658;9.166;2023-02-13T11:03:23;6.10;1.00
6496;DHT22;3281;47.658;9.166;2023-02-13T11:05:50;6.10;1.00
6496;DHT22;3281;47.658;9.166;2023-02-13T11:08:21;6.40;1.00
6496;DHT22;3281;47.658;9.166;2023-02-13T11:10:48;6.30;1.00
6496;DHT22;3281;47.658;9.166;2023-02-13T11:13:18;6.40;1.00
6496;DHT22;3281;47.658;9.166;2023-02-13T11:16:02;6.50;1.00
6496;DHT22;3281;47.658;9.166;2023-02-13T11:18:31;6.60;1.00
6496;DHT22;3281;47.658;9.166;2023-02-13T11:21:00;6.60;1.00
6496;DHT22;3281;47.658;9.166;2023-02-13T11:23:39;6.50;1.00
6496;DHT22;3281;47.658;9.166;2023-02-13T11:26:10;6.30;1.00
6496;DHT22;3281;47.658;9.166;2023-02-13T11:28:46;6.30;1.00
6496;DHT22;3281;47.658;9.166;2023-02-13T11:31:21;6.40;1.00
6496;DHT22;3281;47.658;9.166;2023-02-13T11:33:48;6.40;1.00
6496;DHT22;3281;47.658;9.166;2023-02-13T11:36:21;6.60;1.00
6496;DHT22;3281;47.658;9.166;2023-02-13T11:38:57;6.60;1.00
6496;DHT22;3281;47.658;9.166;2023-02-13T11:41:24;6.60;1.00
6496;DHT22;3281;47.658;9.166;2023-02-13T11:43:54;6.50;1.00
6496;DHT22;3281;47.658;9.166;2023-02-13T11:46:27;6.50;1.00
6496;DHT22;3281;47.658;9.166;2023-02-13T11:48:59;6.60;1.00
6496;DHT22;3281;47.658;9.166;2023-02-13T11:51:41;6.80;1.00
6496;DHT22;3281;47.658;9.166;2023-02-13T11:54:26;6.60;1.00
6496;DHT22;3281;47.658;9.166;2023-02-13T11:56:57;6.70;1.00
6496;DHT22;3281;47.658;9.166;2023-02-13T11:59:28;6.90;1.00
6496;DHT22;3281;47.658;9.166;2023-02-13T12:02:02;6.90;1.00
6496;DHT22;3281;47.658;9.166;2023-02-13T12:04:29;6.80;1.00
6496;DHT22;3281;47.658;9.166;2023-02-13T12:07:01;6.70;1.00
6496;DHT22;3281;47.658;9.166;2023-02-13T12:09:30;6.60;1.00
6496;DHT22;3281;47.658;9.166;2023-02-13T12:11:59;6.70;1.00
6496;DHT22;3281;47.658;9.166;2023-02-13T12:14:30;6.90;1.00
6496;DHT22;3281;47.658;9.166;2023-02-13T12:17:01;7.10;1.00
6496;DHT22;3281;47.658;9.166;2023-02-13T12:19:36;7.10;1.00
6496;DHT22;3281;47.658;9.166;2023-02-13T12:22:21;6.90;1.00
6496;DHT22;3281;47.658;9.166;2023-02-13T12:25:24;6.70;1.00
6496;DHT22;3281;47.658;9.166;2023-02-13T12:28:05;6.70;1.00
6496;DHT22;3281;47.658;9.166;2023-02-13T12:30:45;6.90;1.00
6496;DHT22;3281;47.658;9.166;2023-02-13T12:33:32;7.20;1.00
6496;DHT22;3281;47.658;9.166;2023-02-13T12:36:09;7.00;1.00
6496;DHT22;3281;47.658;9.166;2023-02-13T12:38:51;7.40;1.00
6496;DHT22;3281;47.658;9.166;2023-02-13T12:41:29;7.20;1.00
6496;DHT22;3281;47.658;9.166;2023-02-13T12:44:32;7.20;1.00
6496;DHT22;3281;47.658;9.166;2023-02-13T12:47:10;7.40;1.00
6496;DHT22;3281;47.658;9.166;2023-02-13T12:49:53;7.30;1.00
6496;DHT22;3281;47.658;9.166;2023-02-13T12:52:44;7.20;1.00
6496;DHT22;3281;47.658;9.166;2023-02-13T12:55:26;7.30;1.00
6496;DHT22;3281;47.658;9.166;2023-02-13T12:58:06;7.40;1.00
6496;DHT22;3281;47.658;9.166;2023-02-13T13:00:44;7.50;1.00
6496;DHT22;3281;47.658;9.166;2023-02-13T13:03:34;7.60;1.00
6496;DHT22;3281;47.658;9.166;2023-02-13T13:06:17;7.30;1.00
6496;DHT22;3281;47.658;9.166;2023-02-13T13:09:05;7.30;1.00
6496;DHT22;3281;47.658;9.166;2023-02-13T13:11:52;7.50;1.00
6496;DHT22;3281;47.658;9.166;2023-02-13T13:14:28;7.60;1.00
6496;DHT22;3281;47.658;9.166;2023-02-13T13:17:02;7.60;1.00
6496;DHT22;3281;47.658;9.166;2023-02-13T13:19:37;7.90;1.00
6496;DHT22;3281;47.658;9.166;2023-02-13T13:22:10;8.30;1.00
6496;DHT22;3281;47.658;9.166;2023-02-13T13:24:49;8.60;1.00
6496;DHT22;3281;47.658;9.166;2023-02-13T13:27:22;8.60;1.00
6496;DHT22;3281;47.658;9.166;2023-02-13T13:29:54;8.50;1.00
6496;DHT22;3281;47.658;9.166;2023-02-13T13:32:22;8.70;1.00
6496;DHT22;3281;47.658;9.166;2023-02-13T13:34:49;8.70;1.00
6496;DHT22;3281;47.658;9.166;2023-02-13T13:37:25;8.60;1.00
6496;DHT22;3281;47.658;9.166;2023-02-13T13:40:00;8.70;1.00
6496;DHT22;3281;47.658;9.166;2023-02-13T13:42:37;8.60;1.00
6496;DHT22;3281;47.658;9.166;2023-02-13T13:45:18;8.40;1.00
6496;DHT22;3281;47.658;9.166;2023-02-13T13:47:56;8.20;1.00
6496;DHT22;3281;47.658;9.166;2023-02-13T13:50:31;8.10;1.00
6496;DHT22;3281;47.658;9.166;2023-02-13T13:53:08;7.90;1.00
6496;DHT22;3281;47.658;9.166;2023-02-13T13:56:01;7.70;1.00
6496;DHT22;3281;47.658;9.166;2023-02-13T13:58:42;7.40;1.00
6496;DHT22;3281;47.658;9.166;2023-02-13T14:01:23;7.40;1.00
6496;DHT22;3281;47.658;9.166;2023-02-13T14:03:52;7.70;1.00
6496;DHT22;3281;47.658;9.166;2023-02-13T14:06:20;7.70;1.00
6496;DHT22;3281;47.658;9.166;2023-02-13T14:09:03;7.60;1.00
6496;DHT22;3281;47.658;9.166;2023-02-13T14:11:40;7.40;1.00
6496;DHT22;3281;47.658;9.166;2023-02-13T14:17:15;7.60;1.00
6496;DHT22;3281;47.658;9.166;2023-02-13T14:19:45;7.70;1.00
6496;DHT22;3281;47.658;9.166;2023-02-13T14:22:30;7.60;1.00
6496;DHT22;3281;47.658;9.166;2023-02-13T14:24:59;7.50;1.00
6496;DHT22;3281;47.658;9.166;2023-02-13T14:27:28;7.70;1.00
6496;DHT22;3281;47.658;9.166;2023-02-13T14:29:55;7.70;1.00
6496;DHT22;3281;47.658;9.166;2023-02-13T14:32:27;7.70;1.00
6496;DHT22;3281;47.658;9.166;2023-02-13T14:34:58;7.70;1.00
6496;DHT22;3281;47.658;9.166;2023-02-13T14:37:32;7.60;1.00
6496;DHT22;3281;47.658;9.166;2023-02-13T14:43:00;7.50;1.00
6496;DHT22;3281;47.658;9.166;2023-02-13T14:45:34;7.70;1.00
6496;DHT22;3281;47.658;9.166;2023-02-13T14:48:06;7.70;1.00
6496;DHT22;3281;47.658;9.166;2023-02-13T14:50:43;7.80;1.00
6496;DHT22;3281;47.658;9.166;2023-02-13T14:53:18;7.90;1.00
6496;DHT22;3281;47.658;9.166;2023-02-13T14:55:48;8.00;1.00
6496;DHT22;3281;47.658;9.166;2023-02-13T14:58:21;7.80;1.00
6496;DHT22;3281;47.658;9.166;2023-02-13T15:00:52;7.60;1.00
6496;DHT22;3281;47.658;9.166;2023-02-13T15:03:27;7.60;1.00
6496;DHT22;3281;47.658;9.166;2023-02-13T15:05:56;7.70;1.00
6496;DHT22;3281;47.658;9.166;2023-02-13T15:08:27;7.60;1.00
6496;DHT22;3281;47.658;9.166;2023-02-13T15:10:56;7.60;1.00
6496;DHT22;3281;47.658;9.166;2023-02-13T15:13:25;7.40;1.00
6496;DHT22;3281;47.658;9.166;2023-02-13T15:15:53;7.20;1.00
6496;DHT22;3281;47.658;9.166;2023-02-13T15:18:25;7.30;1.00
6496;DHT22;3281;47.658;9.166;2023-02-13T15:20:54;7.20;1.00
6496;DHT22;3281;47.658;9.166;2023-02-13T15:23:24;7.20;1.00
6496;DHT22;3281;47.658;9.166;2023-02-13T15:25:59;7.10;1.00
6496;DHT22;3281;47.658;9.166;2023-02-13T15:28:27;7.00;1.00
6496;DHT22;3281;47.658;9.166;2023-02-13T15:30:56;7.00;1.00
6496;DHT22;3281;47.658;9.166;2023-02-13T15:33:26;7.00;1.00
6496;DHT22;3281;47.658;9.166;2023-02-13T15:35:55;7.00;1.00
6496;DHT22;3281;47.658;9.166;2023-02-13T15:38:27;6.90;1.00
6496;DHT22;3281;47.658;9.166;2023-02-13T15:40:58;7.00;1.00
6496;DHT22;3281;47.658;9.166;2023-02-13T15:43:31;6.90;1.00
6496;DHT22;3281;47.658;9.166;2023-02-13T15:46:00;6.90;1.00
6496;DHT22;3281;47.658;9.166;2023-02-13T15:48:30;6.80;1.00
6496;DHT22;3281;47.658;9.166;2023-02-13T15:50:58;6.80;1.00
6496;DHT22;3281;47.658;9.166;2023-02-13T15:53:24;6.70;1.00
6496;DHT22;3281;47.658;9.166;2023-02-13T15:55:56;6.60;1.00
6496;DHT22;3281;47.658;9.166;2023-02-13T15:58:26;6.60;1.00
6496;DHT22;3281;47.658;9.166;2023-02-13T16:00:54;6.50;1.00
6496;DHT22;3281;47.658;9.166;2023-02-13T16:03:24;6.50;1.00
6496;DHT22;3281;47.658;9.166;2023-02-13T16:05:53;6.50;1.00
6496;DHT22;3281;47.658;9.166;2023-02-13T16:08:32;6.30;1.00
6496;DHT22;3281;47.658;9.166;2023-02-13T16:11:27;6.30;1.00
6496;DHT22;3281;47.658;9.166;2023-02-13T16:14:02;6.30;1.00
6496;DHT22;3281;47.658;9.166;2023-02-13T16:16:33;6.20;1.00
6496;DHT22;3281;47.658;9.166;2023-02-13T16:19:00;6.10;1.00
6496;DHT22;3281;47.658;9.166;2023-02-13T16:21:28;6.00;1.00
6496;DHT22;3281;47.658;9.166;2023-02-13T16:24:01;6.00;1.00
6496;DHT22;3281;47.658;9.166;2023-02-13T16:26:28;5.80;1.00
6496;DHT22;3281;47.658;9.166;2023-02-13T16:28:56;5.70;1.00
6496;DHT22;3281;47.658;9.166;2023-02-13T16:31:22;5.60;1.00
6496;DHT22;3281;47.658;9.166;2023-02-13T16:33:49;5.40;1.00
6496;DHT22;3281;47.658;9.166;2023-02-13T16:36:18;5.20;1.00
6496;DHT22;3281;47.658;9.166;2023-02-13T16:38:52;5.20;1.00
6496;DHT22;3281;47.658;9.166;2023-02-13T16:41:32;5.10;1.00
6496;DHT22;3281;47.658;9.166;2023-02-13T16:44:00;5.10;1.00
6496;DHT22;3281;47.658;9.166;2023-02-13T16:46:30;5.00;1.00
6496;DHT22;3281;47.658;9.166;2023-02-13T16:49:01;5.00;1.00
6496;DHT22;3281;47.658;9.166;2023-02-13T16:51:33;5.00;1.00
6496;DHT22;3281;47.658;9.166;2023-02-13T16:54:03;4.90;1.00
6496;DHT22;3281;47.658;9.166;2023-02-13T16:56:36;4.70;1.00
6496;DHT22;3281;47.658;9.166;2023-02-13T16:59:13;4.50;1.00
6496;DHT22;3281;47.658;9.166;2023-02-13T17:01:44;4.30;1.00
6496;DHT22;3281;47.658;9.166;2023-02-13T17:04:18;4.10;1.00
6496;DHT22;3281;47.658;9.166;2023-02-13T17:06:46;4.00;1.00
6496;DHT22;3281;47.658;9.166;2023-02-13T17:09:14;3.90;1.00
6496;DHT22;3281;47.658;9.166;2023-02-13T17:11:41;4.00;1.00
6496;DHT22;3281;47.658;9.166;2023-02-13T17:14:08;3.90;1.00
6496;DHT22;3281;47.658;9.166;2023-02-13T17:16:34;4.00;1.00